sensor_id;sensor_type;location;lat;lon;timestamp;P1;durP1;ratioP1;P2;durP2;ratioP2
42420;SDS011;28063;48.140;11.588;2024-01-15T00:00:41;6.93;;;4.10;;
42420;SDS011;28063;48.140;11.588;2024-01-15T00:03:08;8.63;;;4.07;;
42420;SDS011;28063;48.140;11.588;2024-01-15T00:05:34;9.13;;;4.28;;
42420;SDS011;28063;48.140;11.588;2024-01-15T00:08:01;8.15;;;3.65;;
42420;SDS011;28063;48.140;11.588;2024-01-15T00:10:27;8.77;;;4.22;;
42420;SDS011;28063;48.140;11.588;2024-01-15T00:12:59;8.32;;;4.32;;
42420;SDS011;28063;48.140;11.588;2024-01-15T00:15:25;7.50;;;4.63;;
42420;SDS011;28063;48.140;11.588;2024-01-15T00:17:53;8.43;;;4.65;;
42420;SDS011;28063;48.140;11.588;2024-01-15T00:20:19;10.02;;;4.20;;
42420;SDS011;28063;48.140;11.588;2024-01-15T00:22:45;8.05;;;4.15;;
42420;SDS011;28063;48.140;11.588;2024-01-15T00:25:11;9.82;;;4.70;;
42420;SDS011;28063;48.140;11.588;2024-01-15T00:27:38;11.93;;;6.00;;
42420;SDS011;28063;48.140;11.588;2024-01-15T00:30:04;10.45;;;5.07;;
42420;SDS011;28063;48.140;11.588;2024-01-15T00:32:30;12.02;;;5.15;;
42420;SDS011;28063;48.140;11.588;2024-01-15T00:34:56;10.35;;;5.10;;
42420;SDS011;28063;48.140;11.588;2024-01-15T00:37:22;10.27;;;5.15;;
42420;SDS011;28063;48.140;11.588;2024-01-15T00:39:49;10.40;;;4.68;;
42420;SDS011;28063;48.140;11.588;2024-01-15T00:42:15;9.57;;;5.15;;
42420;SDS011;28063;48.140;11.588;2024-01-15T00:44:42;10.15;;;5.43;;
42420;SDS011;28063;48.140;11.588;2024-01-15T00:47:08;8.55;;;5.18;;
42420;SDS011;28063;48.140;11.588;2024-01-15T00:49:34;11.52;;;5.43;;
42420;SDS011;28063;48.140;11.588;2024-01-15T00:52:00;9.85;;;5.00;;
42420;SDS011;28063;48.140;11.588;2024-01-15T00:54:27;11.60;;;5.10;;
42420;SDS011;28063;48.140;11.588;2024-01-15T00:56:58;12.88;;;5.93;;
42420;SDS011;28063;48.140;11.588;2024-01-15T00:59:24;9.20;;;5.25;;
42420;SDS011;28063;48.140;11.588;2024-01-15T01:01:50;11.07;;;5.85;;
42420;SDS011;28063;48.140;11.588;2024-01-15T01:04:17;11.40;;;5.75;;
42420;SDS011;28063;48.140;11.588;2024-01-15T01:06:43;17.08;;;6.68;;
42420;SDS011;28063;48.140;11.588;2024-01-15T01:09:09;15.38;;;7.70;;
42420;SDS011;28063;48.140;11.588;2024-01-15T01:11:35;15.05;;;7.30;;
42420;SDS011;28063;48.140;11.588;2024-01-15T01:14:01;16.30;;;8.02;;
42420;SDS011;28063;48.140;11.588;2024-01-15T01:16:28;17.05;;;8.75;;
42420;SDS011;28063;48.140;11.588;2024-01-15T01:18:56;14.13;;;7.50;;
42420;SDS011;28063;48.140;11.588;2024-01-15T01:21:22;16.85;;;8.05;;
42420;SDS011;28063;48.140;11.588;2024-01-15T01:23:49;16.90;;;8.32;;
42420;SDS011;28063;48.140;11.588;2024-01-15T01:26:15;20.90;;;8.40;;
42420;SDS011;28063;48.140;11.588;2024-01-15T01:28:41;18.90;;;8.43;;
42420;SDS011;28063;48.140;11.588;2024-01-15T01:31:10;21.10;;;8.82;;
42420;SDS011;28063;48.140;11.588;2024-01-15T01:33:37;18.63;;;8.52;;
42420;SDS011;28063;48.140;11.588;2024-01-15T01:36:08;20.65;;;9.02;;
42420;SDS011;28063;48.140;11.588;2024-01-15T01:38:34;37.45;;;12.00;;
42420;SDS011;28063;48.140;11.588;2024-01-15T01:41:01;22.20;;;9.48;;
42420;SDS011;28063;48.140;11.588;2024-01-15T01:43:27;22.58;;;8.82;;
42420;SDS011;28063;48.140;11.588;2024-01-15T01:45:54;20.98;;;8.95;;
42420;SDS011;28063;48.140;11.588;2024-01-15T01:48:21;24.17;;;8.93;;
42420;SDS011;28063;48.140;11.588;2024-01-15T01:50:47;31.27;;;10.35;;
42420;SDS011;28063;48.140;11.588;2024-01-15T01:53:14;34.03;;;10.05;;
42420;SDS011;28063;48.140;11.588;2024-01-15T01:55:40;22.08;;;8.43;;
42420;SDS011;28063;48.140;11.588;2024-01-15T01:58:06;31.13;;;9.38;;
42420;SDS011;28063;48.140;11.588;2024-01-15T02:00:33;34.88;;;11.40;;
42420;SDS011;28063;48.140;11.588;2024-01-15T02:02:59;19.30;;;8.95;;
42420;SDS011;28063;48.140;11.588;2024-01-15T02:05:26;13.45;;;7.22;;
42420;SDS011;28063;48.140;11.588;2024-01-15T02:07:52;14.05;;;7.60;;
42420;SDS011;28063;48.140;11.588;2024-01-15T02:10:19;11.93;;;6.75;;
42420;SDS011;28063;48.140;11.588;2024-01-15T02:12:45;13.20;;;6.88;;
42420;SDS011;28063;48.140;11.588;2024-01-15T02:15:13;13.55;;;6.32;;
42420;SDS011;28063;48.140;11.588;2024-01-15T02:18:01;12.27;;;6.50;;
42420;SDS011;28063;48.140;11.588;2024-01-15T02:20:26;13.20;;;7.05;;
42420;SDS011;28063;48.140;11.588;2024-01-15T02:22:52;15.80;;;7.00;;
42420;SDS011;28063;48.140;11.588;2024-01-15T02:25:18;13.63;;;7.22;;
42420;SDS011;28063;48.140;11.588;2024-01-15T02:27:44;16.15;;;7.80;;
42420;SDS011;28063;48.140;11.588;2024-01-15T02:30:12;13.20;;;6.53;;
42420;SDS011;28063;48.140;11.588;2024-01-15T02:32:38;14.38;;;6.95;;
42420;SDS011;28063;48.140;11.588;2024-01-15T02:35:04;17.13;;;6.40;;
42420;SDS011;28063;48.140;11.588;2024-01-15T02:37:30;12.35;;;6.72;;
42420;SDS011;28063;48.140;11.588;2024-01-15T02:39:56;13.45;;;6.18;;
42420;SDS011;28063;48.140;11.588;2024-01-15T02:42:22;15.07;;;6.55;;
42420;SDS011;28063;48.140;11.588;2024-01-15T02:44:49;12.23;;;6.13;;
42420;SDS011;28063;48.140;11.588;2024-01-15T02:47:15;12.43;;;6.35;;
42420;SDS011;28063;48.140;11.588;2024-01-15T02:49:41;12.32;;;5.78;;
42420;SDS011;28063;48.140;11.588;2024-01-15T02:52:07;15.10;;;6.28;;
42420;SDS011;28063;48.140;11.588;2024-01-15T02:54:33;11.68;;;5.65;;
42420;SDS011;28063;48.140;11.588;2024-01-15T02:56:59;12.45;;;5.38;;
42420;SDS011;28063;48.140;11.588;2024-01-15T02:59:25;11.80;;;5.72;;
42420;SDS011;28063;48.140;11.588;2024-01-15T03:01:51;12.15;;;5.85;;
42420;SDS011;28063;48.140;11.588;2024-01-15T03:04:17;11.25;;;5.10;;
42420;SDS011;28063;48.140;11.588;2024-01-15T03:06:43;13.75;;;6.47;;
42420;SDS011;28063;48.140;11.588;2024-01-15T03:09:09;13.23;;;6.07;;
42420;SDS011;28063;48.140;11.588;2024-01-15T03:11:39;10.27;;;5.55;;
42420;SDS011;28063;48.140;11.588;2024-01-15T03:14:05;12.25;;;5.50;;
42420;SDS011;28063;48.140;11.588;2024-01-15T03:16:31;10.23;;;5.35;;
42420;SDS011;28063;48.140;11.588;2024-01-15T03:18:57;8.82;;;5.07;;
42420;SDS011;28063;48.140;11.588;2024-01-15T03:21:23;15.13;;;5.80;;
42420;SDS011;28063;48.140;11.588;2024-01-15T03:23:49;11.38;;;5.13;;
42420;SDS011;28063;48.140;11.588;2024-01-15T03:26:16;11.60;;;5.40;;
42420;SDS011;28063;48.140;11.588;2024-01-15T03:28:42;12.20;;;5.47;;
42420;SDS011;28063;48.140;11.588;2024-01-15T03:31:08;12.18;;;5.95;;
42420;SDS011;28063;48.140;11.588;2024-01-15T03:33:34;12.10;;;5.78;;
42420;SDS011;28063;48.140;11.588;2024-01-15T03:36:00;12.43;;;5.57;;
42420;SDS011;28063;48.140;11.588;2024-01-15T03:38:29;12.07;;;5.22;;
42420;SDS011;28063;48.140;11.588;2024-01-15T03:40:55;14.57;;;6.35;;
42420;SDS011;28063;48.140;11.588;2024-01-15T03:43:21;12.27;;;5.78;;
42420;SDS011;28063;48.140;11.588;2024-01-15T03:45:47;10.75;;;5.75;;
42420;SDS011;28063;48.140;11.588;2024-01-15T03:48:13;9.57;;;5.05;;
42420;SDS011;28063;48.140;11.588;2024-01-15T03:50:39;9.30;;;4.72;;
42420;SDS011;28063;48.140;11.588;2024-01-15T03:53:05;11.38;;;5.10;;
42420;SDS011;28063;48.140;11.588;2024-01-15T03:55:32;10.52;;;5.10;;
42420;SDS011;28063;48.140;11.588;2024-01-15T03:57:58;11.00;;;4.88;;
42420;SDS011;28063;48.140;11.588;2024-01-15T04:00:24;9.07;;;4.72;;
42420;SDS011;28063;48.140;11.588;2024-01-15T04:02:50;9.68;;;5.20;;
42420;SDS011;28063;48.140;11.588;2024-01-15T04:05:17;11.63;;;5.60;;
42420;SDS011;28063;48.140;11.588;2024-01-15T04:07:43;12.18;;;5.07;;
42420;SDS011;28063;48.140;11.588;2024-01-15T04:10:10;12.18;;;5.63;;
42420;SDS011;28063;48.140;11.588;2024-01-15T04:12:36;10.07;;;4.95;;
42420;SDS011;28063;48.140;11.588;2024-01-15T04:15:03;9.40;;;5.10;;
42420;SDS011;28063;48.140;11.588;2024-01-15T04:17:29;10.52;;;4.97;;
42420;SDS011;28063;48.140;11.588;2024-01-15T04:19:55;9.90;;;5.13;;
42420;SDS011;28063;48.140;11.588;2024-01-15T04:22:21;8.77;;;4.72;;
42420;SDS011;28063;48.140;11.588;2024-01-15T04:24:47;9.30;;;4.30;;
42420;SDS011;28063;48.140;11.588;2024-01-15T04:27:13;11.15;;;4.93;;
42420;SDS011;28063;48.140;11.588;2024-01-15T04:29:39;9.02;;;4.50;;
42420;SDS011;28063;48.140;11.588;2024-01-15T04:32:06;9.32;;;4.72;;
42420;SDS011;28063;48.140;11.588;2024-01-15T04:34:32;9.93;;;4.72;;
42420;SDS011;28063;48.140;11.588;2024-01-15T04:36:58;11.98;;;5.20;;
42420;SDS011;28063;48.140;11.588;2024-01-15T04:39:24;11.15;;;5.22;;
42420;SDS011;28063;48.140;11.588;2024-01-15T04:41:50;11.30;;;4.53;;
42420;SDS011;28063;48.140;11.588;2024-01-15T04:44:16;10.73;;;4.88;;
42420;SDS011;28063;48.140;11.588;2024-01-15T04:46:42;9.05;;;4.68;;
42420;SDS011;28063;48.140;11.588;2024-01-15T04:49:09;9.63;;;4.65;;
42420;SDS011;28063;48.140;11.588;2024-01-15T04:51:35;11.52;;;4.90;;
42420;SDS011;28063;48.140;11.588;2024-01-15T04:54:01;7.68;;;4.20;;
42420;SDS011;28063;48.140;11.588;2024-01-15T04:56:27;10.18;;;4.80;;
42420;SDS011;28063;48.140;11.588;2024-01-15T04:58:53;9.05;;;5.13;;
42420;SDS011;28063;48.140;11.588;2024-01-15T05:01:19;9.85;;;4.95;;
42420;SDS011;28063;48.140;11.588;2024-01-15T05:03:45;9.02;;;4.18;;
42420;SDS011;28063;48.140;11.588;2024-01-15T05:06:12;9.00;;;4.95;;
42420;SDS011;28063;48.140;11.588;2024-01-15T05:08:38;10.30;;;4.68;;
42420;SDS011;28063;48.140;11.588;2024-01-15T05:11:04;7.63;;;4.10;;
42420;SDS011;28063;48.140;11.588;2024-01-15T05:13:30;11.77;;;5.13;;
42420;SDS011;28063;48.140;11.588;2024-01-15T05:15:56;9.40;;;4.88;;
42420;SDS011;28063;48.140;11.588;2024-01-15T05:18:22;8.55;;;4.45;;
42420;SDS011;28063;48.140;11.588;2024-01-15T05:20:48;9.07;;;3.58;;
42420;SDS011;28063;48.140;11.588;2024-01-15T05:23:14;8.02;;;4.13;;
42420;SDS011;28063;48.140;11.588;2024-01-15T05:25:40;8.50;;;4.65;;
42420;SDS011;28063;48.140;11.588;2024-01-15T05:28:07;7.40;;;3.55;;
42420;SDS011;28063;48.140;11.588;2024-01-15T05:30:33;9.07;;;4.40;;
42420;SDS011;28063;48.140;11.588;2024-01-15T05:32:59;7.78;;;3.90;;
42420;SDS011;28063;48.140;11.588;2024-01-15T05:35:26;7.75;;;3.47;;
42420;SDS011;28063;48.140;11.588;2024-01-15T05:37:52;5.75;;;3.65;;
42420;SDS011;28063;48.140;11.588;2024-01-15T05:40:18;6.07;;;3.72;;
42420;SDS011;28063;48.140;11.588;2024-01-15T05:42:44;4.32;;;2.42;;
42420;SDS011;28063;48.140;11.588;2024-01-15T05:45:10;5.63;;;3.28;;
42420;SDS011;28063;48.140;11.588;2024-01-15T05:47:36;7.63;;;4.05;;
42420;SDS011;28063;48.140;11.588;2024-01-15T05:50:02;9.15;;;4.47;;
42420;SDS011;28063;48.140;11.588;2024-01-15T05:52:28;7.03;;;3.78;;
42420;SDS011;28063;48.140;11.588;2024-01-15T05:54:55;8.40;;;3.90;;
42420;SDS011;28063;48.140;11.588;2024-01-15T05:57:21;10.52;;;5.07;;
42420;SDS011;28063;48.140;11.588;2024-01-15T05:59:47;9.43;;;4.93;;
42420;SDS011;28063;48.140;11.588;2024-01-15T06:02:13;8.93;;;5.03;;
42420;SDS011;28063;48.140;11.588;2024-01-15T06:04:39;8.48;;;3.90;;
42420;SDS011;28063;48.140;11.588;2024-01-15T06:07:06;8.40;;;4.03;;
42420;SDS011;28063;48.140;11.588;2024-01-15T06:09:32;9.75;;;4.22;;
42420;SDS011;28063;48.140;11.588;2024-01-15T06:11:58;11.85;;;3.85;;
42420;SDS011;28063;48.140;11.588;2024-01-15T06:14:24;8.95;;;4.63;;
42420;SDS011;28063;48.140;11.588;2024-01-15T06:16:50;7.80;;;3.72;;
42420;SDS011;28063;48.140;11.588;2024-01-15T06:19:16;8.07;;;4.00;;
42420;SDS011;28063;48.140;11.588;2024-01-15T06:21:42;7.45;;;3.85;;
42420;SDS011;28063;48.140;11.588;2024-01-15T06:24:08;7.22;;;3.67;;
42420;SDS011;28063;48.140;11.588;2024-01-15T06:26:38;6.72;;;3.05;;
42420;SDS011;28063;48.140;11.588;2024-01-15T06:29:04;6.57;;;3.83;;
42420;SDS011;28063;48.140;11.588;2024-01-15T06:31:30;7.45;;;3.08;;
42420;SDS011;28063;48.140;11.588;2024-01-15T06:33:57;5.90;;;3.33;;
42420;SDS011;28063;48.140;11.588;2024-01-15T06:36:24;7.72;;;3.40;;
42420;SDS011;28063;48.140;11.588;2024-01-15T06:38:50;6.20;;;3.55;;
42420;SDS011;28063;48.140;11.588;2024-01-15T06:41:17;6.35;;;3.90;;
42420;SDS011;28063;48.140;11.588;2024-01-15T06:43:43;6.55;;;3.33;;
42420;SDS011;28063;48.140;11.588;2024-01-15T06:46:09;6.90;;;3.30;;
42420;SDS011;28063;48.140;11.588;2024-01-15T06:48:35;6.60;;;3.67;;
42420;SDS011;28063;48.140;11.588;2024-01-15T06:51:02;6.68;;;3.38;;
42420;SDS011;28063;48.140;11.588;2024-01-15T06:53:28;6.80;;;3.55;;
42420;SDS011;28063;48.140;11.588;2024-01-15T06:55:54;7.30;;;3.45;;
42420;SDS011;28063;48.140;11.588;2024-01-15T06:58:20;11.02;;;4.32;;
42420;SDS011;28063;48.140;11.588;2024-01-15T07:00:46;7.88;;;3.70;;
42420;SDS011;28063;48.140;11.588;2024-01-15T07:03:12;8.80;;;3.50;;
42420;SDS011;28063;48.140;11.588;2024-01-15T07:05:38;8.27;;;3.13;;
42420;SDS011;28063;48.140;11.588;2024-01-15T07:08:05;10.05;;;3.55;;
42420;SDS011;28063;48.140;11.588;2024-01-15T07:10:31;6.63;;;3.15;;
42420;SDS011;28063;48.140;11.588;2024-01-15T07:12:57;5.18;;;3.42;;
42420;SDS011;28063;48.140;11.588;2024-01-15T07:15:24;7.70;;;3.95;;
42420;SDS011;28063;48.140;11.588;2024-01-15T07:17:50;6.57;;;3.33;;
42420;SDS011;28063;48.140;11.588;2024-01-15T07:20:16;5.82;;;3.25;;
42420;SDS011;28063;48.140;11.588;2024-01-15T07:22:44;9.07;;;4.32;;
42420;SDS011;28063;48.140;11.588;2024-01-15T07:25:10;9.25;;;3.72;;
42420;SDS011;28063;48.140;11.588;2024-01-15T07:27:37;8.52;;;3.72;;
42420;SDS011;28063;48.140;11.588;2024-01-15T07:30:04;5.65;;;3.40;;
42420;SDS011;28063;48.140;11.588;2024-01-15T07:32:31;9.38;;;3.53;;
42420;SDS011;28063;48.140;11.588;2024-01-15T07:34:57;6.45;;;3.15;;
42420;SDS011;28063;48.140;11.588;2024-01-15T07:37:24;6.43;;;3.70;;
42420;SDS011;28063;48.140;11.588;2024-01-15T07:39:50;5.90;;;3.00;;
42420;SDS011;28063;48.140;11.588;2024-01-15T07:42:18;4.88;;;3.08;;
42420;SDS011;28063;48.140;11.588;2024-01-15T07:44:44;5.55;;;3.10;;
42420;SDS011;28063;48.140;11.588;2024-01-15T07:47:10;8.88;;;4.65;;
42420;SDS011;28063;48.140;11.588;2024-01-15T07:49:36;7.32;;;4.20;;
42420;SDS011;28063;48.140;11.588;2024-01-15T07:52:03;6.30;;;3.67;;
42420;SDS011;28063;48.140;11.588;2024-01-15T07:54:30;5.72;;;3.88;;
42420;SDS011;28063;48.140;11.588;2024-01-15T07:59:31;6.97;;;4.03;;
42420;SDS011;28063;48.140;11.588;2024-01-15T08:01:58;7.70;;;4.03;;
42420;SDS011;28063;48.140;11.588;2024-01-15T08:04:24;11.05;;;3.50;;
42420;SDS011;28063;48.140;11.588;2024-01-15T08:06:51;9.23;;;3.80;;
42420;SDS011;28063;48.140;11.588;2024-01-15T08:09:17;6.90;;;3.75;;
42420;SDS011;28063;48.140;11.588;2024-01-15T08:11:43;11.55;;;4.90;;
42420;SDS011;28063;48.140;11.588;2024-01-15T08:14:09;8.50;;;4.50;;
42420;SDS011;28063;48.140;11.588;2024-01-15T08:16:38;9.05;;;5.00;;
42420;SDS011;28063;48.140;11.588;2024-01-15T08:19:05;8.70;;;4.70;;
42420;SDS011;28063;48.140;11.588;2024-01-15T08:21:31;7.40;;;3.85;;
42420;SDS011;28063;48.140;11.588;2024-01-15T08:24:01;9.13;;;4.15;;
42420;SDS011;28063;48.140;11.588;2024-01-15T08:26:28;8.88;;;4.03;;
42420;SDS011;28063;48.140;11.588;2024-01-15T08:28:54;7.85;;;3.92;;
42420;SDS011;28063;48.140;11.588;2024-01-15T08:31:20;11.45;;;5.50;;
42420;SDS011;28063;48.140;11.588;2024-01-15T08:33:47;10.25;;;4.25;;
42420;SDS011;28063;48.140;11.588;2024-01-15T08:36:13;12.65;;;4.40;;
42420;SDS011;28063;48.140;11.588;2024-01-15T08:38:39;8.02;;;4.35;;
42420;SDS011;28063;48.140;11.588;2024-01-15T08:41:06;8.95;;;4.38;;
42420;SDS011;28063;48.140;11.588;2024-01-15T08:43:33;11.73;;;5.07;;
42420;SDS011;28063;48.140;11.588;2024-01-15T08:45:59;6.45;;;3.75;;
42420;SDS011;28063;48.140;11.588;2024-01-15T08:48:25;8.68;;;3.38;;
42420;SDS011;28063;48.140;11.588;2024-01-15T08:50:55;10.93;;;4.45;;
42420;SDS011;28063;48.140;11.588;2024-01-15T08:53:21;8.68;;;3.80;;
42420;SDS011;28063;48.140;11.588;2024-01-15T08:55:48;8.23;;;4.00;;
42420;SDS011;28063;48.140;11.588;2024-01-15T08:58:14;9.07;;;4.20;;
42420;SDS011;28063;48.140;11.588;2024-01-15T09:00:41;10.43;;;4.10;;
42420;SDS011;28063;48.140;11.588;2024-01-15T09:03:07;8.93;;;3.83;;
42420;SDS011;28063;48.140;11.588;2024-01-15T09:05:33;7.60;;;3.72;;
42420;SDS011;28063;48.140;11.588;2024-01-15T09:07:59;9.60;;;4.60;;
42420;SDS011;28063;48.140;11.588;2024-01-15T09:10:25;10.75;;;5.25;;
42420;SDS011;28063;48.140;11.588;2024-01-15T09:12:51;9.63;;;5.30;;
42420;SDS011;28063;48.140;11.588;2024-01-15T09:15:18;7.25;;;4.30;;
42420;SDS011;28063;48.140;11.588;2024-01-15T09:17:45;7.75;;;3.90;;
42420;SDS011;28063;48.140;11.588;2024-01-15T09:20:11;9.10;;;5.40;;
42420;SDS011;28063;48.140;11.588;2024-01-15T09:22:38;9.32;;;5.13;;
42420;SDS011;28063;48.140;11.588;2024-01-15T09:25:06;8.02;;;4.90;;
42420;SDS011;28063;48.140;11.588;2024-01-15T09:27:33;10.70;;;5.03;;
42420;SDS011;28063;48.140;11.588;2024-01-15T09:29:59;10.23;;;4.82;;
42420;SDS011;28063;48.140;11.588;2024-01-15T09:32:25;12.25;;;5.63;;
42420;SDS011;28063;48.140;11.588;2024-01-15T09:34:52;13.02;;;4.00;;
42420;SDS011;28063;48.140;11.588;2024-01-15T09:37:18;11.65;;;4.30;;
42420;SDS011;28063;48.140;11.588;2024-01-15T09:39:44;9.05;;;5.00;;
42420;SDS011;28063;48.140;11.588;2024-01-15T09:42:10;7.03;;;3.83;;
42420;SDS011;28063;48.140;11.588;2024-01-15T09:44:36;9.75;;;4.60;;
42420;SDS011;28063;48.140;11.588;2024-01-15T09:47:03;8.25;;;4.18;;
42420;SDS011;28063;48.140;11.588;2024-01-15T09:49:31;12.35;;;4.30;;
42420;SDS011;28063;48.140;11.588;2024-01-15T09:51:57;7.95;;;3.88;;
42420;SDS011;28063;48.140;11.588;2024-01-15T09:54:24;6.93;;;3.63;;
42420;SDS011;28063;48.140;11.588;2024-01-15T09:56:50;7.68;;;3.67;;
42420;SDS011;28063;48.140;11.588;2024-01-15T09:59:16;7.03;;;3.28;;
42420;SDS011;28063;48.140;11.588;2024-01-15T10:01:44;9.63;;;4.10;;
42420;SDS011;28063;48.140;11.588;2024-01-15T10:04:12;5.85;;;3.65;;
42420;SDS011;28063;48.140;11.588;2024-01-15T10:06:38;7.63;;;4.03;;
42420;SDS011;28063;48.140;11.588;2024-01-15T10:09:05;8.95;;;3.83;;
42420;SDS011;28063;48.140;11.588;2024-01-15T10:11:33;6.88;;;2.80;;
42420;SDS011;28063;48.140;11.588;2024-01-15T10:13:59;6.28;;;3.42;;
42420;SDS011;28063;48.140;11.588;2024-01-15T10:16:25;7.18;;;3.60;;
42420;SDS011;28063;48.140;11.588;2024-01-15T10:18:51;9.07;;;3.58;;
42420;SDS011;28063;48.140;11.588;2024-01-15T10:21:18;5.72;;;3.10;;
42420;SDS011;28063;48.140;11.588;2024-01-15T10:23:44;6.05;;;3.17;;
42420;SDS011;28063;48.140;11.588;2024-01-15T10:26:10;6.65;;;3.60;;
42420;SDS011;28063;48.140;11.588;2024-01-15T10:28:40;7.13;;;3.67;;
42420;SDS011;28063;48.140;11.588;2024-01-15T10:31:07;7.90;;;3.15;;
42420;SDS011;28063;48.140;11.588;2024-01-15T10:33:36;6.10;;;3.05;;
42420;SDS011;28063;48.140;11.588;2024-01-15T10:36:03;5.80;;;2.90;;
42420;SDS011;28063;48.140;11.588;2024-01-15T10:38:37;7.18;;;2.97;;
42420;SDS011;28063;48.140;11.588;2024-01-15T10:41:03;8.48;;;3.45;;
42420;SDS011;28063;48.140;11.588;2024-01-15T10:43:29;6.47;;;2.90;;
42420;SDS011;28063;48.140;11.588;2024-01-15T10:45:57;5.15;;;3.15;;
42420;SDS011;28063;48.140;11.588;2024-01-15T10:48:24;4.32;;;2.35;;
42420;SDS011;28063;48.140;11.588;2024-01-15T10:50:51;5.20;;;2.38;;
42420;SDS011;28063;48.140;11.588;2024-01-15T10:53:18;5.57;;;2.97;;
42420;SDS011;28063;48.140;11.588;2024-01-15T10:55:44;8.80;;;3.30;;
42420;SDS011;28063;48.140;11.588;2024-01-15T10:58:10;4.78;;;2.38;;
42420;SDS011;28063;48.140;11.588;2024-01-15T11:00:36;6.55;;;3.15;;
42420;SDS011;28063;48.140;11.588;2024-01-15T11:03:06;6.05;;;3.08;;
42420;SDS011;28063;48.140;11.588;2024-01-15T11:05:33;6.53;;;2.88;;
42420;SDS011;28063;48.140;11.588;2024-01-15T11:08:00;6.43;;;2.97;;
42420;SDS011;28063;48.140;11.588;2024-01-15T11:13:08;5.88;;;2.80;;
42420;SDS011;28063;48.140;11.588;2024-01-15T11:15:54;6.05;;;3.00;;
42420;SDS011;28063;48.140;11.588;2024-01-15T11:18:20;4.85;;;2.53;;
42420;SDS011;28063;48.140;11.588;2024-01-15T11:28:57;5.30;;;2.95;;
42420;SDS011;28063;48.140;11.588;2024-01-15T11:34:07;5.70;;;2.90;;
42420;SDS011;28063;48.140;11.588;2024-01-15T11:41:59;4.53;;;2.72;;
42420;SDS011;28063;48.140;11.588;2024-01-15T11:44:26;5.43;;;2.30;;
42420;SDS011;28063;48.140;11.588;2024-01-15T11:49:23;4.85;;;2.65;;
42420;SDS011;28063;48.140;11.588;2024-01-15T11:51:54;9.57;;;2.70;;
42420;SDS011;28063;48.140;11.588;2024-01-15T11:54:21;3.72;;;2.10;;
42420;SDS011;28063;48.140;11.588;2024-01-15T11:56:48;4.45;;;2.08;;
42420;SDS011;28063;48.140;11.588;2024-01-15T11:59:15;7.18;;;2.72;;
42420;SDS011;28063;48.140;11.588;2024-01-15T12:01:41;5.70;;;2.65;;
42420;SDS011;28063;48.140;11.588;2024-01-15T12:04:08;4.57;;;2.20;;
42420;SDS011;28063;48.140;11.588;2024-01-15T12:06:34;4.97;;;2.45;;
42420;SDS011;28063;48.140;11.588;2024-01-15T12:09:09;4.70;;;2.83;;
42420;SDS011;28063;48.140;11.588;2024-01-15T12:11:36;6.30;;;2.42;;
42420;SDS011;28063;48.140;11.588;2024-01-15T12:14:04;4.97;;;2.40;;
42420;SDS011;28063;48.140;11.588;2024-01-15T12:16:31;4.53;;;2.45;;
42420;SDS011;28063;48.140;11.588;2024-01-15T12:18:57;3.47;;;1.98;;
42420;SDS011;28063;48.140;11.588;2024-01-15T12:21:26;3.78;;;1.90;;
42420;SDS011;28063;48.140;11.588;2024-01-15T12:23:52;5.18;;;2.08;;
42420;SDS011;28063;48.140;11.588;2024-01-15T12:26:19;4.82;;;2.78;;
42420;SDS011;28063;48.140;11.588;2024-01-15T12:28:45;2.58;;;1.80;;
42420;SDS011;28063;48.140;11.588;2024-01-15T12:31:11;5.30;;;2.17;;
42420;SDS011;28063;48.140;11.588;2024-01-15T12:33:38;5.30;;;2.50;;
42420;SDS011;28063;48.140;11.588;2024-01-15T12:36:05;3.22;;;2.20;;
42420;SDS011;28063;48.140;11.588;2024-01-15T12:38:31;3.10;;;1.52;;
42420;SDS011;28063;48.140;11.588;2024-01-15T12:41:00;2.40;;;1.60;;
42420;SDS011;28063;48.140;11.588;2024-01-15T12:43:26;3.95;;;1.60;;
42420;SDS011;28063;48.140;11.588;2024-01-15T12:45:59;4.07;;;1.75;;
42420;SDS011;28063;48.140;11.588;2024-01-15T12:48:25;2.50;;;1.77;;
42420;SDS011;28063;48.140;11.588;2024-01-15T12:50:52;3.38;;;1.88;;
42420;SDS011;28063;48.140;11.588;2024-01-15T12:53:19;4.00;;;2.03;;
42420;SDS011;28063;48.140;11.588;2024-01-15T12:55:45;4.32;;;1.52;;
42420;SDS011;28063;48.140;11.588;2024-01-15T12:58:12;3.45;;;1.85;;
42420;SDS011;28063;48.140;11.588;2024-01-15T13:00:39;2.35;;;1.52;;
42420;SDS011;28063;48.140;11.588;2024-01-15T13:03:06;3.45;;;1.85;;
42420;SDS011;28063;48.140;11.588;2024-01-15T13:05:32;10.65;;;2.03;;
42420;SDS011;28063;48.140;11.588;2024-01-15T13:07:59;3.13;;;1.95;;
42420;SDS011;28063;48.140;11.588;2024-01-15T13:10:25;2.40;;;1.38;;
42420;SDS011;28063;48.140;11.588;2024-01-15T13:12:54;2.05;;;1.38;;
42420;SDS011;28063;48.140;11.588;2024-01-15T13:15:21;4.88;;;2.15;;
42420;SDS011;28063;48.140;11.588;2024-01-15T13:17:47;3.53;;;1.80;;
42420;SDS011;28063;48.140;11.588;2024-01-15T13:20:14;3.40;;;2.10;;
42420;SDS011;28063;48.140;11.588;2024-01-15T13:22:40;3.50;;;1.98;;
42420;SDS011;28063;48.140;11.588;2024-01-15T13:25:09;2.47;;;1.80;;
42420;SDS011;28063;48.140;11.588;2024-01-15T13:27:36;4.18;;;2.00;;
42420;SDS011;28063;48.140;11.588;2024-01-15T13:30:03;2.63;;;1.80;;
42420;SDS011;28063;48.140;11.588;2024-01-15T13:32:29;6.22;;;2.28;;
42420;SDS011;28063;48.140;11.588;2024-01-15T13:34:56;3.03;;;2.10;;
42420;SDS011;28063;48.140;11.588;2024-01-15T13:37:22;2.17;;;1.83;;
42420;SDS011;28063;48.140;11.588;2024-01-15T13:39:50;4.15;;;2.33;;
42420;SDS011;28063;48.140;11.588;2024-01-15T13:42:17;3.60;;;2.00;;
42420;SDS011;28063;48.140;11.588;2024-01-15T13:44:43;4.85;;;2.22;;
42420;SDS011;28063;48.140;11.588;2024-01-15T13:47:11;5.78;;;2.47;;
42420;SDS011;28063;48.140;11.588;2024-01-15T13:49:37;2.92;;;1.73;;
42420;SDS011;28063;48.140;11.588;2024-01-15T13:52:04;3.83;;;2.17;;
42420;SDS011;28063;48.140;11.588;2024-01-15T13:54:30;5.50;;;2.63;;
42420;SDS011;28063;48.140;11.588;2024-01-15T13:56:58;5.60;;;2.40;;
42420;SDS011;28063;48.140;11.588;2024-01-15T13:59:24;4.72;;;2.70;;
42420;SDS011;28063;48.140;11.588;2024-01-15T14:01:50;8.35;;;3.00;;
42420;SDS011;28063;48.140;11.588;2024-01-15T14:04:16;4.68;;;2.05;;
42420;SDS011;28063;48.140;11.588;2024-01-15T14:06:44;6.40;;;1.92;;
42420;SDS011;28063;48.140;11.588;2024-01-15T14:09:10;4.72;;;2.30;;
42420;SDS011;28063;48.140;11.588;2024-01-15T14:11:39;3.70;;;1.85;;
42420;SDS011;28063;48.140;11.588;2024-01-15T14:14:05;7.22;;;2.55;;
42420;SDS011;28063;48.140;11.588;2024-01-15T14:16:33;4.70;;;2.80;;
42420;SDS011;28063;48.140;11.588;2024-01-15T14:18:59;6.30;;;3.30;;
42420;SDS011;28063;48.140;11.588;2024-01-15T14:21:27;4.35;;;2.55;;
42420;SDS011;28063;48.140;11.588;2024-01-15T14:23:53;3.22;;;2.17;;
42420;SDS011;28063;48.140;11.588;2024-01-15T14:26:19;5.07;;;2.50;;
42420;SDS011;28063;48.140;11.588;2024-01-15T14:28:45;4.40;;;2.50;;
42420;SDS011;28063;48.140;11.588;2024-01-15T14:31:13;5.22;;;2.20;;
42420;SDS011;28063;48.140;11.588;2024-01-15T14:33:39;3.65;;;2.38;;
42420;SDS011;28063;48.140;11.588;2024-01-15T14:36:05;4.60;;;2.38;;
42420;SDS011;28063;48.140;11.588;2024-01-15T14:38:32;5.40;;;3.42;;
42420;SDS011;28063;48.140;11.588;2024-01-15T14:40:58;5.38;;;3.10;;
42420;SDS011;28063;48.140;11.588;2024-01-15T14:43:26;3.65;;;2.20;;
42420;SDS011;28063;48.140;11.588;2024-01-15T14:45:52;3.42;;;2.20;;
42420;SDS011;28063;48.140;11.588;2024-01-15T14:48:18;5.13;;;2.67;;
42420;SDS011;28063;48.140;11.588;2024-01-15T14:50:44;4.75;;;2.50;;